Time;durP1;ratioP1;P1;durP2;ratioP2;P2;SDS_P1;SDS_P2;PMS_P1;PMS_P2;Temp;Humidity;BMP_temperature;BMP_pressure;BME280_temperature;BME280_humidity;BME280_pressure;Samples;Min_cycle;Max_cycle;Signal;HPM_P1;HPM_P2
2022/11/17 00:00:19;;;;;;;7.50;3.17;;;10.70;99.90;;;;;;4966275;28;20027;-49
2022/11/17 00:02:45;;;;;;;8.43;4.03;;;10.70;99.90;;;;;;4969333;28;20039;-50
2022/11/17 00:05:11;;;;;;;11.10;4.43;;;10.70;99.90;;;;;;4969342;28;20020;-50
2022/11/17 00:07:36;;;;;;;10.27;3.40;;;10.60;99.90;;;;;;4969451;28;20034;-49
2022/11/17 00:10:02;;;;;;;15.50;5.57;;;10.60;99.90;;;;;;4968895;28;20019;-52
2022/11/17 00:15:12;;;;;;;9.40;4.22;;;10.60;99.90;;;;;;4969562;28;20042;-53
2022/11/17 00:17:37;;;;;;;8.10;4.18;;;10.60;99.90;;;;;;4968623;28;20027;-50
2022/11/17 00:22:48;;;;;;;10.02;3.33;;;10.60;99.90;;;;;;4968409;29;20090;-50
2022/11/17 00:25:13;;;;;;;5.10;2.90;;;10.60;99.90;;;;;;4969014;28;20027;-49
2022/11/17 00:27:39;;;;;;;5.47;3.13;;;10.70;99.90;;;;;;4983597;28;20027;-51
2022/11/17 00:30:05;;;;;;;8.88;3.28;;;10.70;99.90;;;;;;4969351;28;20503;-52
2022/11/17 00:35:15;;;;;;;8.15;3.75;;;10.70;99.90;;;;;;4969404;29;20086;-49
2022/11/17 00:40:25;;;;;;;17.67;9.50;;;10.80;99.90;;;;;;4969462;29;20092;-52
2022/11/17 00:42:50;;;;;;;8.75;4.30;;;10.70;99.90;;;;;;4968805;28;20031;-49
2022/11/17 00:45:16;;;;;;;22.27;12.68;;;10.70;99.90;;;;;;4968153;28;20027;-52
2022/11/17 00:47:42;;;;;;;14.05;7.05;;;10.60;99.90;;;;;;4979249;28;20034;-53
2022/11/17 00:50:08;;;;;;;6.82;3.88;;;11.00;99.90;;;;;;4963622;28;20035;-51
2022/11/17 00:52:34;;;;;;;8.63;3.92;;;10.70;99.90;;;;;;4963002;28;20098;-51
2022/11/17 00:54:59;;;;;;;7.65;4.35;;;10.70;99.90;;;;;;4979131;28;20128;-49
2022/11/17 00:57:25;;;;;;;5.85;4.30;;;10.70;99.90;;;;;;4960585;28;20045;-50
2022/11/17 00:59:50;;;;;;;10.55;3.83;;;10.60;99.90;;;;;;4960084;28;20031;-49
2022/11/17 01:02:16;;;;;;;11.13;4.10;;;10.60;99.90;;;;;;4965276;28;20508;-49
2022/11/17 01:04:42;;;;;;;8.27;4.07;;;10.50;99.90;;;;;;4966170;28;20027;-55
2022/11/17 01:07:07;;;;;;;9.68;4.53;;;10.50;99.90;;;;;;4968244;28;20051;-52
2022/11/17 01:09:33;;;;;;;7.05;3.28;;;10.40;99.90;;;;;;4966612;28;20031;-52
2022/11/17 01:11:58;;;;;;;10.20;4.07;;;10.40;99.90;;;;;;4964713;28;20027;-48
2022/11/17 01:14:27;;;;;;;7.65;4.18;;;10.50;99.90;;;;;;4965163;28;20031;-52
2022/11/17 01:16:53;;;;;;;10.65;3.45;;;10.40;99.90;;;;;;4964825;28;20488;-52
2022/11/17 01:19:21;;;;;;;8.13;3.25;;;10.40;99.90;;;;;;4979864;28;20027;-56
2022/11/17 01:21:47;;;;;;;8.88;3.25;;;10.30;99.90;;;;;;4979070;28;20031;-53
2022/11/17 01:24:14;;;;;;;9.20;3.50;;;10.30;99.90;;;;;;4968128;28;20033;-48
2022/11/17 01:26:40;;;;;;;5.88;2.70;;;10.30;99.90;;;;;;4986138;28;20046;-53
2022/11/17 01:29:07;;;;;;;9.05;3.33;;;10.20;99.90;;;;;;4989607;28;20034;-50
2022/11/17 01:31:35;;;;;;;6.85;2.95;;;10.20;99.90;;;;;;4985530;28;20041;-54
2022/11/17 01:34:01;;;;;;;10.02;4.13;;;10.30;99.90;;;;;;4981077;28;20423;-51
2022/11/17 01:37:17;;;;;;;7.22;3.50;;;10.40;99.90;;;;;;4983211;28;20033;-54
2022/11/17 01:39:16;;;;;;;6.40;3.45;;;10.40;99.90;;;;;;4982196;28;20062;-49
2022/11/17 01:41:42;;;;;;;4.13;2.60;;;10.50;99.90;;;;;;4979945;28;20038;-49
2022/11/17 01:44:47;;;;;;;4.60;2.58;;;10.40;99.90;;;;;;4998018;28;20050;-48
2022/11/17 01:47:15;;;;;;;6.43;2.72;;;10.50;99.90;;;;;;4985445;28;20031;-53
2022/11/17 01:49:41;;;;;;;10.02;4.25;;;10.50;99.90;;;;;;4983822;28;20026;-52
2022/11/17 01:52:09;;;;;;;7.97;3.67;;;10.60;99.90;;;;;;4985527;28;20081;-53
2022/11/17 01:54:39;;;;;;;12.50;3.38;;;10.60;99.90;;;;;;5001283;28;20102;-54
2022/11/17 01:57:13;;;;;;;4.85;2.80;;;10.60;99.90;;;;;;4985830;28;20018;-50
2022/11/17 01:59:47;;;;;;;6.70;2.85;;;10.70;99.90;;;;;;4984939;28;20037;-50
2022/11/17 02:02:12;;;;;;;5.90;2.47;;;10.70;99.90;;;;;;4985181;28;20079;-52
2022/11/17 02:04:46;;;;;;;4.32;2.30;;;10.60;99.90;;;;;;4984010;28;20026;-51
2022/11/17 02:07:25;;;;;;;3.47;1.75;;;10.60;99.90;;;;;;4984952;28;20066;-50
2022/11/17 02:09:52;;;;;;;1.65;1.35;;;10.90;99.90;;;;;;4984274;28;20038;-51
2022/11/17 02:12:19;;;;;;;1.85;1.40;;;11.00;99.90;;;;;;4983584;28;20512;-51
2022/11/17 02:14:47;;;;;;;4.97;1.60;;;11.20;99.90;;;;;;4984892;28;20034;-49
2022/11/17 02:17:13;;;;;;;4.75;2.00;;;11.20;99.90;;;;;;4984628;28;20034;-49
2022/11/17 02:19:41;;;;;;;5.03;1.63;;;11.30;99.90;;;;;;4984819;28;20049;-50
2022/11/17 02:22:52;;;;;;;4.07;1.80;;;11.30;99.90;;;;;;4982747;28;20435;-48
2022/11/17 02:25:59;;;;;;;6.07;2.45;;;11.30;99.90;;;;;;4984360;28;20050;-47
2022/11/17 02:28:28;;;;;;;6.57;2.25;;;11.20;99.90;;;;;;4996823;28;20020;-49
2022/11/17 02:31:22;;;;;;;2.00;1.80;;;11.20;99.90;;;;;;4984594;28;20030;-55
2022/11/17 02:34:02;;;;;;;3.53;2.22;;;11.20;99.90;;;;;;4984267;28;20095;-52
2022/11/17 02:36:31;;;;;;;1.63;1.52;;;11.10;99.90;;;;;;4983253;28;20081;-50
2022/11/17 02:39:21;;;;;;;4.43;1.75;;;11.10;99.90;;;;;;4988403;28;20034;-49
2022/11/17 02:42:14;;;;;;;3.97;2.00;;;11.10;99.90;;;;;;4987515;28;20030;-49
2022/11/17 02:44:56;;;;;;;2.60;1.77;;;11.10;99.90;;;;;;4988107;28;20043;-53
2022/11/17 02:47:26;;;;;;;6.20;2.47;;;11.00;99.90;;;;;;4989273;28;20021;-53
2022/11/17 02:50:08;;;;;;;4.95;1.70;;;10.90;99.90;;;;;;4988843;28;20030;-49
2022/11/17 02:52:33;;;;;;;2.67;1.70;;;10.90;99.90;;;;;;4987945;28;20065;-51
2022/11/17 02:55:05;;;;;;;2.70;1.58;;;11.10;99.90;;;;;;5004735;28;20027;-49
2022/11/17 02:57:36;;;;;;;4.13;1.73;;;10.90;99.90;;;;;;5005873;28;20034;-50
2022/11/17 03:00:11;;;;;;;6.15;1.52;;;10.90;99.90;;;;;;5007556;28;20022;-52
2022/11/17 03:03:11;;;;;;;3.58;1.83;;;11.00;99.90;;;;;;5007077;28;20038;-53
2022/11/17 03:05:56;;;;;;;3.55;1.60;;;11.00;99.90;;;;;;4992497;28;20014;-50
2022/11/17 03:08:58;;;;;;;3.42;1.40;;;11.10;99.90;;;;;;5007907;28;20031;-50
2022/11/17 03:11:35;;;;;;;1.50;1.33;;;11.20;99.90;;;;;;4991545;28;20030;-54
2022/11/17 03:14:09;;;;;;;3.47;1.30;;;11.30;99.90;;;;;;4992116;28;20046;-51
2022/11/17 03:16:49;;;;;;;1.80;1.42;;;11.30;99.90;;;;;;4992736;28;20067;-50
2022/11/17 03:19:20;;;;;;;3.03;1.48;;;11.40;99.90;;;;;;5006144;28;20023;-52
2022/11/17 03:21:49;;;;;;;3.00;1.17;;;11.50;99.90;;;;;;5007848;28;20099;-54
2022/11/17 03:24:29;;;;;;;3.40;1.15;;;11.50;99.90;;;;;;5008081;28;20047;-49
2022/11/17 03:27:00;;;;;;;1.10;0.95;;;11.60;99.90;;;;;;5007412;28;20090;-49
2022/11/17 03:29:30;;;;;;;2.95;1.10;;;11.60;99.90;;;;;;4992285;28;20027;-53
2022/11/17 03:32:01;;;;;;;0.98;0.98;;;11.60;99.90;;;;;;5007443;28;20090;-53
2022/11/17 03:34:32;;;;;;;0.93;0.90;;;11.60;99.90;;;;;;4992059;28;20043;-52
2022/11/17 03:37:02;;;;;;;1.63;1.00;;;11.70;99.90;;;;;;4993323;28;20030;-51
2022/11/17 03:39:33;;;;;;;1.33;1.23;;;11.60;99.90;;;;;;4991011;28;20325;-51
2022/11/17 03:42:17;;;;;;;1.00;1.00;;;11.70;99.90;;;;;;5001303;28;20034;-52
2022/11/17 03:44:49;;;;;;;2.00;1.17;;;11.70;99.90;;;;;;5003755;28;20019;-52
2022/11/17 03:47:18;;;;;;;2.28;1.10;;;11.70;99.90;;;;;;4989955;28;20050;-52
2022/11/17 03:49:58;;;;;;;1.65;1.35;;;11.80;99.90;;;;;;5006056;28;20095;-51
2022/11/17 03:52:25;;;;;;;1.17;1.00;;;11.70;99.90;;;;;;4989368;28;20031;-51
2022/11/17 03:54:52;;;;;;;4.05;1.20;;;11.70;99.90;;;;;;4988057;28;20053;-50
2022/11/17 03:57:30;;;;;;;1.33;0.95;;;11.80;99.90;;;;;;5004444;28;20057;-53
2022/11/17 04:00:07;;;;;;;4.60;1.50;;;11.60;99.90;;;;;;5003989;28;20027;-47
2022/11/17 04:02:32;;;;;;;1.33;1.10;;;11.60;99.90;;;;;;4988140;28;20019;-51
2022/11/17 04:05:04;;;;;;;1.23;1.13;;;11.60;99.90;;;;;;4987988;28;20054;-53
2022/11/17 04:07:30;;;;;;;5.82;1.23;;;11.60;99.90;;;;;;4987345;28;20487;-48
2022/11/17 04:09:56;;;;;;;4.53;1.27;;;11.60;99.90;;;;;;4989653;28;20058;-54
2022/11/17 04:17:50;;;;;;;2.08;1.15;;;11.50;99.90;;;;;;4987482;28;20036;-53
2022/11/17 04:20:15;;;;;;;3.30;1.40;;;11.50;99.90;;;;;;5000984;28;20031;-54
2022/11/17 04:22:41;;;;;;;2.25;1.30;;;11.50;99.90;;;;;;5001652;28;20030;-51
2022/11/17 04:25:07;;;;;;;1.20;1.10;;;11.50;99.90;;;;;;5002534;28;20574;-53
2022/11/17 04:30:17;;;;;;;2.67;1.20;;;11.60;99.90;;;;;;4987339;28;20030;-52
2022/11/17 04:32:42;;;;;;;1.95;1.50;;;11.60;99.90;;;;;;4986410;28;20027;-54
2022/11/17 04:35:08;;;;;;;3.97;1.45;;;11.60;99.90;;;;;;5002208;28;20277;-51
2022/11/17 04:37:33;;;;;;;2.90;1.52;;;11.60;99.90;;;;;;4986995;28;20419;-50
2022/11/17 04:39:59;;;;;;;2.55;1.38;;;11.50;99.90;;;;;;4986919;28;20038;-54
2022/11/17 04:42:25;;;;;;;4.50;1.30;;;11.50;99.90;;;;;;4985810;28;20034;-49
2022/11/17 04:44:50;;;;;;;2.45;1.30;;;11.50;99.90;;;;;;4987051;28;20105;-53
2022/11/17 04:47:16;;;;;;;2.03;1.60;;;11.50;99.90;;;;;;4986824;28;20037;-49
2022/11/17 04:49:41;;;;;;;1.23;1.05;;;11.50;99.90;;;;;;4986548;28;20027;-52
2022/11/17 04:52:07;;;;;;;3.67;1.73;;;11.40;99.90;;;;;;4985786;28;20392;-49
2022/11/17 04:54:33;;;;;;;2.50;2.05;;;11.40;99.90;;;;;;5002044;28;20034;-49
2022/11/17 04:56:58;;;;;;;1.30;1.23;;;11.40;99.90;;;;;;5003474;28;20494;-51
2022/11/17 04:59:24;;;;;;;1.75;1.17;;;11.40;99.90;;;;;;5002404;28;20051;-52
2022/11/17 05:01:49;;;;;;;1.25;1.10;;;11.50;99.90;;;;;;4986420;28;20046;-50
2022/11/17 05:07:09;;;;;;;1.80;1.42;;;11.50;99.90;;;;;;4993046;28;20074;-50
2022/11/17 05:09:35;;;;;;;4.43;1.77;;;11.60;99.90;;;;;;4986614;28;20031;-49
2022/11/17 05:14:47;;;;;;;2.47;1.20;;;11.50;99.90;;;;;;4986134;28;20058;-57
2022/11/17 05:17:13;;;;;;;1.80;1.48;;;11.40;99.90;;;;;;4985060;28;20034;-54
2022/11/17 05:19:44;;;;;;;3.60;1.27;;;11.40;99.90;;;;;;4983794;28;20412;-51
2022/11/17 05:24:56;;;;;;;4.18;1.45;;;11.20;99.90;;;;;;4986129;28;20053;-53
2022/11/17 05:27:23;;;;;;;5.13;1.38;;;11.10;99.90;;;;;;5001991;28;20031;-51
2022/11/17 05:29:48;;;;;;;1.95;1.20;;;11.10;99.90;;;;;;5001202;28;20458;-53
2022/11/17 05:32:14;;;;;;;4.80;1.35;;;11.20;99.90;;;;;;4985170;28;20035;-53
2022/11/17 05:34:40;;;;;;;4.25;1.40;;;11.10;99.90;;;;;;4986247;28;20558;-54
2022/11/17 05:37:06;;;;;;;3.80;1.10;;;11.20;99.90;;;;;;5001925;28;20031;-52
2022/11/17 05:39:31;;;;;;;2.65;1.17;;;11.00;99.90;;;;;;5001125;28;20062;-49
2022/11/17 05:41:57;;;;;;;6.13;1.20;;;11.00;99.90;;;;;;5001039;28;20486;-51
2022/11/17 05:44:22;;;;;;;1.90;1.80;;;11.10;99.90;;;;;;4986807;28;20426;-52
2022/11/17 05:46:48;;;;;;;2.85;1.98;;;11.10;99.90;;;;;;4985868;28;20498;-51
2022/11/17 05:49:13;;;;;;;3.05;1.20;;;11.10;99.90;;;;;;4986027;28;20038;-51
2022/11/17 05:51:39;;;;;;;2.38;1.30;;;11.10;99.90;;;;;;4986548;28;20031;-51
2022/11/17 05:54:04;;;;;;;1.90;1.33;;;11.10;99.90;;;;;;4985976;28;20090;-48
2022/11/17 05:56:44;;;;;;;3.28;1.17;;;11.10;99.90;;;;;;4985643;28;20019;-51
2022/11/17 05:59:20;;;;;;;2.55;1.52;;;11.00;99.90;;;;;;4986127;28;20030;-50
2022/11/17 06:01:50;;;;;;;;;;;11.10;99.90;;;;;;4984815;28;20023;-54
2022/11/17 06:04:18;;;;;;;1.40;1.30;;;11.10;99.90;;;;;;4983671;28;20420;-51
2022/11/17 06:06:44;;;;;;;2.03;1.27;;;11.00;99.90;;;;;;4984692;28;20162;-52
2022/11/17 06:09:10;;;;;;;1.10;1.10;;;11.00;99.90;;;;;;4984682;28;20055;-52
2022/11/17 06:11:36;;;;;;;6.43;2.30;;;11.10;99.90;;;;;;4983521;28;20035;-48
2022/11/17 06:14:01;;;;;;;1.98;1.58;;;11.10;99.90;;;;;;4981786;28;20030;-47
2022/11/17 06:16:30;;;;;;;2.15;1.35;;;11.40;99.90;;;;;;4997838;28;20027;-47
2022/11/17 06:19:07;;;;;;;3.97;1.60;;;11.10;99.90;;;;;;4998202;28;20027;-48
2022/11/17 06:21:33;;;;;;;4.18;1.48;;;11.10;99.90;;;;;;4982810;28;20050;-52
2022/11/17 06:24:00;;;;;;;2.47;1.23;;;11.10;99.90;;;;;;4998833;28;20047;-51
2022/11/17 06:26:26;;;;;;;3.95;1.73;;;11.10;99.90;;;;;;5001394;28;20274;-52
2022/11/17 06:28:52;;;;;;;1.23;1.05;;;11.10;99.90;;;;;;4985893;28;20027;-52
2022/11/17 06:31:18;;;;;;;6.85;1.42;;;11.30;99.90;;;;;;5004103;28;20061;-48
2022/11/17 06:33:44;;;;;;;3.33;1.20;;;11.20;99.90;;;;;;4988859;28;20090;-50
2022/11/17 06:36:10;;;;;;;2.33;1.55;;;11.20;99.90;;;;;;4989570;28;20035;-52
2022/11/17 06:38:36;;;;;;;4.13;1.58;;;11.20;99.90;;;;;;4989285;28;20031;-48
2022/11/17 06:41:03;;;;;;;3.17;1.50;;;11.30;99.90;;;;;;5004263;28;20053;-50
2022/11/17 06:43:29;;;;;;;1.90;1.50;;;11.30;99.90;;;;;;5002174;28;20491;-53
2022/11/17 06:45:55;;;;;;;2.63;1.33;;;11.30;99.90;;;;;;5003621;28;20027;-52
2022/11/17 06:48:26;;;;;;;2.25;1.38;;;11.40;99.90;;;;;;5005138;28;20407;-51
2022/11/17 06:50:54;;;;;;;4.30;1.58;;;11.40;99.90;;;;;;5004011;28;20030;-49
2022/11/17 06:53:25;;;;;;;2.58;1.35;;;11.30;99.90;;;;;;4988636;28;20030;-47
2022/11/17 06:56:05;;;;;;;1.90;1.58;;;11.30;99.90;;;;;;4989637;28;20034;-52
2022/11/17 06:58:31;;;;;;;4.40;1.48;;;11.40;99.90;;;;;;5003883;28;20027;-52
2022/11/17 07:01:08;;;;;;;1.33;1.20;;;11.40;99.90;;;;;;4989067;28;20399;-51
2022/11/17 07:03:35;;;;;;;1.50;1.30;;;11.40;99.90;;;;;;4988002;28;20035;-51
2022/11/17 07:06:03;;;;;;;4.10;1.25;;;11.40;99.90;;;;;;5003022;28;20054;-50
2022/11/17 07:08:29;;;;;;;4.85;1.30;;;11.60;99.90;;;;;;5003231;28;20026;-53
2022/11/17 07:10:54;;;;;;;4.88;1.60;;;11.30;99.90;;;;;;5004463;28;20023;-48
2022/11/17 07:13:22;;;;;;;2.47;1.20;;;11.30;99.90;;;;;;4988105;28;20023;-53
2022/11/17 07:15:51;;;;;;;3.25;1.35;;;11.30;99.90;;;;;;5003760;28;20078;-53
2022/11/17 07:18:17;;;;;;;3.58;1.25;;;11.30;99.90;;;;;;4987924;28;20037;-52
2022/11/17 07:20:43;;;;;;;1.90;1.38;;;11.30;99.90;;;;;;5002820;28;20412;-50
2022/11/17 07:23:09;;;;;;;4.53;1.55;;;11.30;99.90;;;;;;4987873;28;20026;-51
2022/11/17 07:25:35;;;;;;;1.77;1.30;;;11.20;99.90;;;;;;5003223;28;20218;-48
2022/11/17 07:28:00;;;;;;;4.47;1.27;;;11.30;99.90;;;;;;4987554;28;20479;-54
2022/11/17 07:30:26;;;;;;;3.83;1.23;;;11.20;99.90;;;;;;4986791;28;20022;-53
2022/11/17 07:32:51;;;;;;;4.72;1.67;;;11.20;99.90;;;;;;4981936;28;20049;-48
2022/11/17 07:35:18;;;;;;;6.53;1.40;;;11.20;99.90;;;;;;4983183;28;20473;-48
2022/11/17 07:37:44;;;;;;;1.98;1.48;;;11.30;99.90;;;;;;5001246;28;20086;-51
2022/11/17 07:40:09;;;;;;;3.10;1.50;;;11.20;99.90;;;;;;4989808;28;20065;-53
2022/11/17 07:42:35;;;;;;;7.35;2.88;;;11.30;99.90;;;;;;4977629;28;20039;-48
2022/11/17 07:45:00;;;;;;;12.25;1.45;;;11.30;99.90;;;;;;4975487;28;20066;-49
2022/11/17 07:47:26;;;;;;;4.95;1.60;;;11.30;99.90;;;;;;4988308;28;20554;-52
2022/11/17 07:49:52;;;;;;;1.63;0.90;;;11.30;99.90;;;;;;4989679;28;20046;-49
2022/11/17 07:52:17;;;;;;;2.65;1.58;;;11.30;99.90;;;;;;4977030;28;20102;-54
2022/11/17 07:54:43;;;;;;;7.63;1.50;;;11.30;99.90;;;;;;4980739;28;20046;-49
2022/11/17 07:57:08;;;;;;;6.72;1.33;;;11.30;99.90;;;;;;4964088;28;20032;-47
2022/11/17 07:59:34;;;;;;;1.50;1.20;;;11.40;99.90;;;;;;4979924;28;20034;-50
2022/11/17 08:02:00;;;;;;;2.58;1.58;;;11.50;99.90;;;;;;4978747;28;20058;-53
2022/11/17 08:04:25;;;;;;;2.40;1.20;;;11.60;99.90;;;;;;4964454;28;20027;-50
2022/11/17 08:06:51;;;;;;;10.10;2.03;;;11.60;99.90;;;;;;4964033;28;20031;-52
2022/11/17 08:09:16;;;;;;;3.50;1.40;;;11.70;99.90;;;;;;4963167;28;20035;-50
2022/11/17 08:11:42;;;;;;;3.55;1.45;;;11.70;99.90;;;;;;4977948;28;20110;-52
2022/11/17 08:14:08;;;;;;;3.80;1.48;;;11.80;99.90;;;;;;4962539;28;20043;-51
2022/11/17 08:16:33;;;;;;;3.67;1.67;;;11.70;99.90;;;;;;4962052;28;20031;-47
2022/11/17 08:18:59;;;;;;;4.53;1.50;;;11.80;99.90;;;;;;4960639;28;20039;-45
2022/11/17 08:21:24;;;;;;;7.00;1.60;;;11.80;99.90;;;;;;4966647;28;20030;-46
2022/11/17 08:23:51;;;;;;;3.40;1.48;;;11.80;99.90;;;;;;4964665;28;20372;-52
2022/11/17 08:26:19;;;;;;;8.43;1.42;;;11.90;99.90;;;;;;4982461;28;20392;-45
2022/11/17 08:28:45;;;;;;;2.25;1.70;;;11.90;99.90;;;;;;4963086;28;20019;-45
2022/11/17 08:31:11;;;;;;;4.38;1.42;;;11.90;99.90;;;;;;4993069;28;20156;-48
2022/11/17 08:33:36;;;;;;;3.95;1.58;;;11.90;99.90;;;;;;4986131;28;20063;-47
2022/11/17 08:36:03;;;;;;;4.75;1.50;;;11.90;99.90;;;;;;4969776;28;20067;-48
2022/11/17 08:38:29;;;;;;;9.20;1.80;;;12.00;99.90;;;;;;5004708;23;20039;-48
2022/11/17 08:40:56;;;;;;;4.20;1.85;;;11.90;99.90;;;;;;4972763;28;20113;-50
2022/11/17 08:43:21;;;;;;;3.15;1.85;;;12.00;99.90;;;;;;4988157;28;20046;-47
2022/11/17 08:45:47;;;;;;;5.70;1.77;;;12.10;99.90;;;;;;4967897;28;20038;-50
2022/11/17 08:48:13;;;;;;;6.63;2.00;;;12.20;99.90;;;;;;4973521;28;20553;-47
2022/11/17 08:50:38;;;;;;;8.40;2.00;;;12.30;99.90;;;;;;4972163;28;20529;-49
2022/11/17 08:53:04;;;;;;;3.88;1.58;;;12.30;99.90;;;;;;4973073;28;20463;-52
2022/11/17 08:55:29;;;;;;;4.53;1.83;;;12.40;99.90;;;;;;4973978;28;20412;-48
2022/11/17 08:57:55;;;;;;;10.77;1.92;;;12.40;99.90;;;;;;4963858;28;20046;-51
2022/11/17 09:00:20;;;;;;;5.60;1.83;;;12.40;99.90;;;;;;4984986;28;20062;-52
2022/11/17 09:02:46;;;;;;;3.72;1.52;;;12.40;99.90;;;;;;4968657;28;20031;-51
2022/11/17 09:05:11;;;;;;;3.55;1.40;;;12.40;99.90;;;;;;4973688;28;20369;-52
2022/11/17 09:07:37;;;;;;;6.65;1.65;;;12.30;99.90;;;;;;4965789;28;20077;-49
2022/11/17 09:10:04;;;;;;;6.53;1.75;;;12.30;99.90;;;;;;4953814;28;20023;-52
2022/11/17 09:12:30;;;;;;;8.70;2.03;;;12.30;99.90;;;;;;4953462;28;20031;-49
2022/11/17 09:14:55;;;;;;;6.68;2.38;;;12.30;99.90;;;;;;4953997;28;20034;-51
2022/11/17 09:17:21;;;;;;;6.18;1.63;;;12.30;99.90;;;;;;4971764;28;20522;-53
2022/11/17 09:19:46;;;;;;;6.68;2.50;;;12.30;99.90;;;;;;4973386;28;20058;-50
2022/11/17 09:22:13;;;;;;;7.55;2.25;;;12.20;99.90;;;;;;4960093;28;20043;-54
2022/11/17 09:24:38;;;;;;;8.18;2.00;;;12.20;99.90;;;;;;4958939;28;20029;-57
2022/11/17 09:27:04;;;;;;;5.45;1.85;;;12.20;99.90;;;;;;4970715;28;20094;-53
2022/11/17 09:29:30;;;;;;;6.75;1.90;;;12.30;99.90;;;;;;4973115;28;20494;-51
2022/11/17 09:31:56;;;;;;;11.18;2.28;;;12.30;99.90;;;;;;4966858;28;20033;-52
2022/11/17 09:34:22;;;;;;;3.33;1.40;;;12.30;99.90;;;;;;4972507;28;20035;-53
2022/11/17 09:36:47;;;;;;;5.60;1.63;;;12.40;99.90;;;;;;4971069;28;20114;-53
2022/11/17 09:39:14;;;;;;;8.82;1.90;;;12.50;99.90;;;;;;4972582;28;20039;-56
2022/11/17 09:41:46;;;;;;;6.40;2.13;;;12.60;99.90;;;;;;4973022;28;20034;-54
2022/11/17 09:44:23;;;;;;;8.90;2.22;;;12.60;99.90;;;;;;4973118;28;20058;-57
2022/11/17 09:47:01;;;;;;;4.93;1.73;;;12.70;99.90;;;;;;4973168;28;20546;-50
2022/11/17 09:49:32;;;;;;;5.30;1.90;;;12.70;99.90;;;;;;4971724;28;20019;-52
2022/11/17 09:52:05;;;;;;;5.55;1.92;;;12.70;99.90;;;;;;4972357;28;20022;-50
2022/11/17 09:54:44;;;;;;;7.70;1.83;;;12.70;99.90;;;;;;4973137;28;20037;-53
2022/11/17 09:57:46;;;;;;;12.52;1.67;;;12.70;99.90;;;;;;4973098;28;20023;-54
2022/11/17 10:00:19;;;;;;;6.43;1.40;;;12.60;99.90;;;;;;4973137;28;20038;-53
2022/11/17 10:02:46;;;;;;;7.75;1.60;;;12.60;99.90;;;;;;4987413;28;20027;-56
2022/11/17 10:05:15;;;;;;;5.65;2.47;;;12.60;99.90;;;;;;4973761;28;20027;-51
2022/11/17 10:07:46;;;;;;;6.97;1.70;;;12.50;99.90;;;;;;4977036;28;20019;-50
2022/11/17 10:10:18;;;;;;;2.85;1.38;;;12.50;99.90;;;;;;4976835;28;20027;-55
2022/11/17 10:12:50;;;;;;;14.60;2.38;;;12.50;99.90;;;;;;4976122;28;20023;-53
2022/11/17 10:15:29;;;;;;;3.42;1.55;;;12.50;99.90;;;;;;4976666;28;20062;-55
2022/11/17 10:17:55;;;;;;;10.27;2.00;;;12.50;99.90;;;;;;4976678;28;20402;-51
2022/11/17 10:20:21;;;;;;;4.30;2.10;;;12.60;99.90;;;;;;4976914;28;20022;-46
2022/11/17 10:22:48;;;;;;;6.18;2.03;;;12.60;99.90;;;;;;4976180;28;20034;-51
2022/11/17 10:25:37;;;;;;;7.07;1.63;;;12.70;99.90;;;;;;4976576;28;20026;-57
2022/11/17 10:28:04;;;;;;;6.22;1.50;;;12.90;99.90;;;;;;4976966;28;20565;-56
2022/11/17 10:30:30;;;;;;;8.60;2.58;;;13.10;99.90;;;;;;4976628;28;20034;-55
2022/11/17 10:32:58;;;;;;;8.73;2.22;;;13.20;99.90;;;;;;4976101;28;20030;-56
2022/11/17 10:35:34;;;;;;;7.50;2.00;;;13.40;99.90;;;;;;4976368;28;20034;-49
2022/11/17 10:38:02;;;;;;;6.65;1.38;;;13.40;99.90;;;;;;4976417;28;20158;-50
2022/11/17 10:40:30;;;;;;;5.32;1.67;;;13.50;99.90;;;;;;4976270;28;20050;-54
2022/11/17 10:43:11;;;;;;;4.65;1.25;;;13.50;99.90;;;;;;4975681;28;20030;-55
2022/11/17 10:45:46;;;;;;;6.78;1.30;;;13.40;99.90;;;;;;4976708;28;20026;-51
2022/11/17 10:48:35;;;;;;;7.05;2.50;;;13.40;99.90;;;;;;4977101;28;20023;-54
2022/11/17 10:51:18;;;;;;;6.25;1.83;;;13.30;99.90;;;;;;4985759;28;20034;-54
2022/11/17 10:54:25;;;;;;;6.45;1.55;;;13.30;99.90;;;;;;4987015;28;20402;-51
2022/11/17 10:56:54;;;;;;;5.40;1.30;;;13.20;99.90;;;;;;4987245;28;20511;-55
2022/11/17 10:59:29;;;;;;;5.88;1.55;;;13.20;99.90;;;;;;4980701;28;20063;-53
2022/11/17 11:01:55;;;;;;;5.63;1.63;;;13.20;99.90;;;;;;4984365;28;20027;-54
2022/11/17 11:04:27;;;;;;;7.00;1.70;;;13.30;99.90;;;;;;4985212;28;20073;-55
2022/11/17 11:07:07;;;;;;;15.02;7.63;;;13.20;99.90;;;;;;4962471;28;20407;-55
2022/11/17 11:09:38;;;;;;;13.18;5.93;;;13.10;99.90;;;;;;4958779;29;20032;-54
2022/11/17 11:12:10;;;;;;;7.32;2.08;;;13.10;99.90;;;;;;4948014;29;20039;-51
2022/11/17 11:14:43;;;;;;;6.20;2.10;;;13.00;99.90;;;;;;4961133;28;20042;-55
2022/11/17 11:17:14;;;;;;;5.63;1.75;;;13.10;99.90;;;;;;4956502;28;20034;-53
2022/11/17 11:19:42;;;;;;;7.45;1.67;;;13.00;99.90;;;;;;4961533;28;20039;-49
2022/11/17 11:22:26;;;;;;;5.47;1.45;;;13.10;99.90;;;;;;4965446;28;20062;-53
2022/11/17 11:25:17;;;;;;;6.82;1.75;;;13.10;99.90;;;;;;4958463;28;20035;-51
2022/11/17 11:28:09;;;;;;;6.22;1.35;;;13.10;99.90;;;;;;4962642;28;20033;-53
2022/11/17 11:30:57;;;;;;;5.43;1.45;;;13.10;99.90;;;;;;4986667;28;20026;-53
2022/11/17 11:33:35;;;;;;;9.18;2.38;;;13.00;99.90;;;;;;4977530;28;20047;-51
2022/11/17 11:36:14;;;;;;;7.90;1.10;;;13.00;99.90;;;;;;4968117;28;20526;-57
2022/11/17 11:39:02;;;;;;;7.78;1.40;;;12.90;99.90;;;;;;4967996;28;20027;-55
2022/11/17 11:41:49;;;;;;;8.98;2.38;;;12.90;99.90;;;;;;4956754;28;20027;-52
2022/11/17 11:44:46;;;;;;;5.60;1.70;;;12.90;99.90;;;;;;4956290;28;20030;-50
2022/11/17 11:47:39;;;;;;;7.32;1.90;;;12.80;99.90;;;;;;4936740;29;20575;-53
2022/11/17 11:50:05;;;;;;;8.02;1.55;;;12.60;99.90;;;;;;4936836;29;20050;-53
2022/11/17 11:52:34;;;;;;;6.20;1.63;;;12.40;99.90;;;;;;4936054;29;20023;-51
2022/11/17 11:55:13;;;;;;;8.88;1.77;;;12.20;99.90;;;;;;4936817;29;20032;-49
2022/11/17 11:57:46;;;;;;;5.90;1.73;;;12.20;99.90;;;;;;4937312;29;20399;-52
2022/11/17 12:00:16;;;;;;;1.90;1.10;;;12.00;99.90;;;;;;4936098;28;20051;-49
2022/11/17 12:03:12;;;;;;;5.20;2.47;;;12.00;99.90;;;;;;4935161;29;20039;-52
2022/11/17 12:05:57;;;;;;;;;;;11.90;99.90;;;;;;4936406;29;20091;-54
2022/11/17 12:08:28;;;;;;;18.08;10.02;;;11.90;99.90;;;;;;4935882;29;19907;-51
2022/11/17 12:11:59;;;;;;;48.25;26.45;;;11.90;99.90;;;;;;4936151;28;20016;-49
2022/11/17 12:13:51;;;;;;;6.47;1.63;;;11.90;99.90;;;;;;4934950;28;20028;-49
2022/11/17 12:16:18;;;;;;;4.78;1.67;;;11.90;99.90;;;;;;4954649;28;20484;-49
2022/11/17 12:18:44;;;;;;;3.20;1.10;;;11.90;99.90;;;;;;4968379;28;20419;-48
2022/11/17 12:21:20;;;;;;;1.75;0.63;;;11.90;99.90;;;;;;4955542;28;20023;-50
2022/11/17 12:24:11;;;;;;;4.60;1.88;;;11.80;99.90;;;;;;4935453;29;20031;-49
2022/11/17 12:26:37;;;;;;;6.07;1.20;;;11.80;99.90;;;;;;4934387;29;20032;-46
2022/11/17 12:29:20;;;;;;;3.58;1.20;;;11.90;99.90;;;;;;4935408;29;20567;-49
2022/11/17 12:32:06;;;;;;;2.47;0.93;;;11.90;99.90;;;;;;4935605;29;20031;-55
2022/11/17 12:34:36;;;;;;;5.78;1.17;;;11.90;99.90;;;;;;4935688;29;20051;-50
2022/11/17 12:37:05;;;;;;;8.95;1.52;;;11.90;99.90;;;;;;4954421;28;20063;-50
2022/11/17 12:39:50;;;;;;;8.43;1.60;;;12.00;99.90;;;;;;4964879;28;20045;-51
2022/11/17 12:42:19;;;;;;;6.22;1.33;;;12.10;99.90;;;;;;4968495;28;20058;-51
2022/11/17 12:44:58;;;;;;;3.05;1.20;;;12.10;99.90;;;;;;4973864;28;20026;-48
2022/11/17 12:47:43;;;;;;;4.20;1.20;;;12.10;99.90;;;;;;4936163;29;20055;-52
2022/11/17 12:50:20;;;;;;;6.30;1.38;;;12.10;99.90;;;;;;4936708;29;20030;-54
2022/11/17 12:53:04;;;;;;;5.65;1.38;;;12.20;99.90;;;;;;4938977;29;20024;-56
2022/11/17 12:55:38;;;;;;;6.18;1.00;;;12.20;99.90;;;;;;4945547;28;20023;-55
2022/11/17 12:58:49;;;;;;;4.32;1.00;;;12.30;99.90;;;;;;4964003;28;20103;-56
2022/11/17 13:01:36;;;;;;;2.67;1.20;;;12.30;99.90;;;;;;4963483;28;20062;-53
2022/11/17 13:04:10;;;;;;;5.70;1.00;;;12.20;99.90;;;;;;4972977;28;20034;-53
2022/11/17 13:06:36;;;;;;;2.17;1.27;;;12.10;99.90;;;;;;4973447;28;20019;-52
2022/11/17 13:09:10;;;;;;;2.25;0.90;;;12.10;99.90;;;;;;4979950;28;20081;-47
2022/11/17 13:11:35;;;;;;;4.68;1.23;;;12.10;99.90;;;;;;4959747;28;20509;-46
2022/11/17 13:14:14;;;;;;;2.30;1.40;;;12.00;99.90;;;;;;4953056;28;20027;-49
2022/11/17 13:16:47;;;;;;;3.90;0.75;;;12.00;99.90;;;;;;4954149;28;20023;-47
2022/11/17 13:19:30;;;;;;;3.35;1.05;;;12.00;99.90;;;;;;4953347;28;20041;-56
2022/11/17 13:22:15;;;;;;;5.57;1.40;;;12.00;99.90;;;;;;4952625;28;20415;-47
2022/11/17 13:24:49;;;;;;;6.18;1.35;;;12.00;99.90;;;;;;4962396;28;20491;-52
2022/11/17 13:27:22;;;;;;;3.25;1.23;;;12.00;99.90;;;;;;4964272;28;20446;-52
2022/11/17 13:29:49;;;;;;;2.95;1.27;;;12.00;99.90;;;;;;4956859;28;20067;-53
2022/11/17 13:32:15;;;;;;;2.45;1.20;;;12.00;99.90;;;;;;4962801;28;20038;-50